Time;durP1;ratioP1;P1;durP2;ratioP2;P2;SDS_P1;SDS_P2;PMS_P1;PMS_P2;Temp;Humidity;BMP_temperature;BMP_pressure;BME280_temperature;BME280_humidity;BME280_pressure;Samples;Min_cycle;Max_cycle;Signal;HPM_P1;HPM_P2
2022/09/07 00:00:16;;;;;;;3.58;2.58;;;;;;;;;;6180220;23;20026;-74
2022/09/07 00:02:43;;;;;;;5.10;2.30;;;;;;;;;;6180121;23;20029;-74
2022/09/07 00:05:10;;;;;;;5.18;2.42;;;;;;;;;;6181430;23;20036;-74
2022/09/07 00:07:44;;;;;;;3.25;2.42;;;;;;;;;;6180276;23;20314;-74
2022/09/07 00:10:11;;;;;;;3.90;2.50;;;;;;;;;;6180310;23;20132;-74
2022/09/07 00:12:39;;;;;;;1.65;1.55;;;;;;;;;;6155141;23;20017;-74
2022/09/07 00:15:20;;;;;;;3.03;1.80;;;;;;;;;;6179473;23;20025;-74
2022/09/07 00:17:53;;;;;;;1.83;1.65;;;;;;;;;;6180692;23;20025;-74
2022/09/07 00:20:27;;;;;;;2.70;2.00;;;;;;;;;;6156099;23;20025;-74
2022/09/07 00:22:54;;;;;;;3.28;2.20;;;;;;;;;;6180749;23;20028;-74
2022/09/07 00:25:21;;;;;;;2.17;2.00;;;;;;;;;;6181233;23;20024;-74
2022/09/07 00:27:58;;;;;;;2.70;2.10;;;;;;;;;;6178434;23;20028;-74
2022/09/07 00:30:26;;;;;;;3.88;2.20;;;;;;;;;;6180029;23;20079;-74
2022/09/07 00:32:53;;;;;;;7.43;2.70;;;;;;;;;;6179380;23;20025;-74
2022/09/07 00:35:27;;;;;;;8.00;2.78;;;;;;;;;;6180539;23;20471;-74
2022/09/07 00:37:54;;;;;;;2.45;2.22;;;;;;;;;;6179361;23;20025;-74
2022/09/07 00:40:21;;;;;;;3.42;2.60;;;;;;;;;;6181412;23;20025;-74
2022/09/07 00:42:55;;;;;;;5.70;2.55;;;;;;;;;;6180867;23;20454;-74
2022/09/07 00:45:22;;;;;;;2.40;2.05;;;;;;;;;;6180114;23;20075;-74
2022/09/07 00:47:56;;;;;;;3.08;1.70;;;;;;;;;;6180671;23;20056;-74
2022/09/07 00:50:30;;;;;;;5.18;2.10;;;;;;;;;;6180273;23;20033;-74
2022/09/07 00:53:05;;;;;;;1.70;1.60;;;;;;;;;;6180107;23;20025;-74
2022/09/07 00:55:40;;;;;;;2.15;1.88;;;;;;;;;;6179548;23;20025;-74
2022/09/07 00:58:07;;;;;;;4.18;1.90;;;;;;;;;;6180289;23;20025;-74
2022/09/07 01:00:35;;;;;;;3.97;2.20;;;;;;;;;;6179859;23;20055;-74
2022/09/07 01:03:10;;;;;;;7.03;2.45;;;;;;;;;;6180845;23;20525;-74
2022/09/07 01:05:45;;;;;;;4.80;2.22;;;;;;;;;;6179584;23;20470;-74
2022/09/07 01:08:19;;;;;;;3.30;2.55;;;;;;;;;;6179096;23;20029;-74
2022/09/07 01:10:46;;;;;;;2.67;2.40;;;;;;;;;;6180382;23;20079;-74
2022/09/07 01:13:16;;;;;;;3.90;2.40;;;;;;;;;;6178425;23;20021;-74
2022/09/07 01:16:00;;;;;;;3.95;2.67;;;;;;;;;;6177575;23;20033;-74
2022/09/07 01:18:27;;;;;;;4.78;2.50;;;;;;;;;;6179571;23;20024;-74
2022/09/07 01:21:20;;;;;;;3.55;2.45;;;;;;;;;;6178333;23;20028;-74
2022/09/07 01:24:07;;;;;;;4.25;2.70;;;;;;;;;;6179044;23;20321;-74
2022/09/07 01:26:56;;;;;;;2.95;2.40;;;;;;;;;;6111509;23;20029;-74
2022/09/07 01:29:31;;;;;;;4.65;2.67;;;;;;;;;;6179332;23;20052;-74
2022/09/07 01:32:05;;;;;;;5.47;2.75;;;;;;;;;;6179463;23;20029;-74
2022/09/07 01:34:32;;;;;;;4.38;3.13;;;;;;;;;;6178525;23;20600;-74
2022/09/07 01:37:08;;;;;;;3.33;2.08;;;;;;;;;;6178315;23;20540;-74
2022/09/07 01:39:51;;;;;;;2.95;2.33;;;;;;;;;;6179265;23;20083;-73
2022/09/07 01:42:20;;;;;;;8.43;2.58;;;;;;;;;;6180050;23;20024;-74
2022/09/07 01:44:59;;;;;;;4.97;2.40;;;;;;;;;;6177150;23;20025;-74
2022/09/07 01:47:29;;;;;;;5.03;2.20;;;;;;;;;;6178638;23;20025;-73
2022/09/07 01:50:09;;;;;;;5.05;1.70;;;;;;;;;;6177409;23;20076;-73
2022/09/07 01:52:55;;;;;;;2.63;2.13;;;;;;;;;;6178426;23;20059;-73
2022/09/07 01:55:32;;;;;;;2.50;2.30;;;;;;;;;;6178914;23;20071;-74
2022/09/07 01:58:05;;;;;;;7.07;2.50;;;;;;;;;;6178904;23;20080;-74
2022/09/07 02:00:42;;;;;;;4.97;2.28;;;;;;;;;;6178852;23;20032;-73
2022/09/07 02:03:19;;;;;;;3.67;2.28;;;;;;;;;;6179789;23;20071;-74
2022/09/07 02:05:59;;;;;;;2.60;2.30;;;;;;;;;;6178909;23;20335;-74
2022/09/07 02:08:32;;;;;;;2.90;2.13;;;;;;;;;;6178190;23;20021;-74
2022/09/07 02:11:28;;;;;;;4.57;2.20;;;;;;;;;;6153911;23;20029;-74
2022/09/07 02:14:02;;;;;;;2.60;2.30;;;;;;;;;;6178720;23;20025;-74
2022/09/07 02:16:59;;;;;;;2.30;1.88;;;;;;;;;;6179412;23;20537;-74
2022/09/07 02:19:28;;;;;;;3.00;2.08;;;;;;;;;;6178858;23;20051;-73
2022/09/07 02:22:04;;;;;;;4.05;2.20;;;;;;;;;;6178927;23;20052;-74
2022/09/07 02:24:38;;;;;;;3.50;2.30;;;;;;;;;;6179369;23;20063;-74
2022/09/07 02:27:18;;;;;;;2.85;2.40;;;;;;;;;;6179910;23;20024;-73
2022/09/07 02:29:45;;;;;;;3.13;2.67;;;;;;;;;;6178682;23;20028;-74
2022/09/07 02:32:19;;;;;;;7.03;2.70;;;;;;;;;;6178024;23;20025;-74
2022/09/07 02:34:46;;;;;;;4.22;2.88;;;;;;;;;;6179833;23;20025;-74
2022/09/07 02:37:14;;;;;;;4.82;2.65;;;;;;;;;;6178732;23;20021;-73
2022/09/07 02:39:48;;;;;;;4.93;2.50;;;;;;;;;;6177631;23;20481;-73
2022/09/07 02:42:15;;;;;;;2.75;2.17;;;;;;;;;;6179021;23;20541;-74
2022/09/07 02:44:45;;;;;;;4.30;1.92;;;;;;;;;;6179055;23;20025;-73
2022/09/07 02:47:37;;;;;;;2.75;2.20;;;;;;;;;;6179867;23;20029;-73
2022/09/07 02:50:17;;;;;;;7.90;2.25;;;;;;;;;;6179846;23;20071;-72
2022/09/07 02:53:01;;;;;;;9.98;2.97;;;;;;;;;;6180254;23;20025;-74
2022/09/07 02:55:29;;;;;;;5.15;3.60;;;;;;;;;;6181020;23;20722;-74
2022/09/07 02:58:11;;;;;;;5.55;3.10;;;;;;;;;;6181338;23;20025;-74
2022/09/07 03:00:42;;;;;;;3.97;2.70;;;;;;;;;;6181056;23;20032;-73
2022/09/07 03:03:16;;;;;;;3.95;2.70;;;;;;;;;;6181709;23;20059;-73
2022/09/07 03:05:51;;;;;;;4.65;2.45;;;;;;;;;;6180016;23;20075;-74
2022/09/07 03:08:36;;;;;;;4.07;2.25;;;;;;;;;;6179951;23;20080;-73
2022/09/07 03:11:04;;;;;;;3.03;2.28;;;;;;;;;;6181939;23;20059;-74
2022/09/07 03:13:38;;;;;;;3.03;2.42;;;;;;;;;;6181629;23;20028;-74
2022/09/07 03:16:13;;;;;;;4.90;2.35;;;;;;;;;;6179314;23;20537;-74
2022/09/07 03:18:47;;;;;;;3.72;2.50;;;;;;;;;;6156106;23;20132;-74
2022/09/07 03:21:14;;;;;;;4.35;2.70;;;;;;;;;;6181056;23;20021;-74
2022/09/07 03:23:42;;;;;;;3.63;2.97;;;;;;;;;;6179824;23;20033;-73
2022/09/07 03:26:24;;;;;;;6.88;2.70;;;;;;;;;;6180310;23;20021;-74
2022/09/07 03:28:51;;;;;;;6.63;3.20;;;;;;;;;;6179974;23;20025;-73
2022/09/07 03:31:25;;;;;;;4.28;3.10;;;;;;;;;;6156008;23;20025;-74
2022/09/07 03:33:54;;;;;;;3.10;2.40;;;;;;;;;;6180480;23;20079;-74
2022/09/07 03:36:21;;;;;;;3.33;2.70;;;;;;;;;;6179404;23;20025;-74
2022/09/07 03:38:57;;;;;;;3.05;2.47;;;;;;;;;;6180230;23;20536;-73
2022/09/07 03:41:25;;;;;;;4.35;2.75;;;;;;;;;;6179760;23;20405;-73
2022/09/07 03:43:53;;;;;;;3.72;2.78;;;;;;;;;;6180613;23;20025;-73
2022/09/07 03:46:27;;;;;;;3.83;2.90;;;;;;;;;;6179582;23;20029;-74
2022/09/07 03:48:55;;;;;;;4.10;2.78;;;;;;;;;;6181008;23;20532;-74
2022/09/07 03:51:22;;;;;;;3.10;2.08;;;;;;;;;;6179126;23;20036;-73
2022/09/07 03:53:56;;;;;;;4.85;2.78;;;;;;;;;;6179232;23;20021;-73
2022/09/07 03:56:24;;;;;;;4.18;2.75;;;;;;;;;;6180105;23;20029;-73
2022/09/07 03:58:51;;;;;;;;;;;;;;;;;;6179855;23;20060;-73
2022/09/07 04:01:25;;;;;;;3.15;2.55;;;;;;;;;;6180629;23;19970;-73
2022/09/07 04:03:56;;;;;;;4.38;2.75;;;;;;;;;;6181657;23;20018;-74
2022/09/07 04:06:28;;;;;;;3.20;2.40;;;;;;;;;;6179938;23;20033;-73
2022/09/07 04:09:06;;;;;;;5.03;2.53;;;;;;;;;;6180817;23;20501;-73
2022/09/07 04:11:34;;;;;;;5.35;3.15;;;;;;;;;;6181379;23;20029;-74
2022/09/07 04:14:01;;;;;;;4.43;2.70;;;;;;;;;;6180606;23;20036;-73
2022/09/07 04:16:44;;;;;;;3.95;3.17;;;;;;;;;;6178405;23;20029;-73
2022/09/07 04:19:11;;;;;;;15.27;3.42;;;;;;;;;;6154941;23;20025;-73
2022/09/07 04:21:45;;;;;;;10.45;3.70;;;;;;;;;;6178359;23;20091;-73
2022/09/07 04:24:16;;;;;;;6.00;3.10;;;;;;;;;;6181145;23;20029;-74
2022/09/07 04:26:44;;;;;;;4.38;2.60;;;;;;;;;;6151556;23;20029;-73
2022/09/07 04:29:18;;;;;;;4.65;2.42;;;;;;;;;;6179121;23;20017;-73
2022/09/07 04:31:45;;;;;;;3.97;2.38;;;;;;;;;;6178076;23;20025;-73
2022/09/07 04:34:13;;;;;;;4.03;2.42;;;;;;;;;;6178170;23;20757;-72
2022/09/07 04:36:47;;;;;;;5.57;2.60;;;;;;;;;;6176365;23;20087;-73
2022/09/07 04:39:14;;;;;;;3.08;2.47;;;;;;;;;;6177637;23;20024;-73
2022/09/07 04:41:41;;;;;;;6.60;3.10;;;;;;;;;;6176961;23;20503;-73
2022/09/07 04:44:15;;;;;;;7.50;2.78;;;;;;;;;;6177402;23;20017;-73
2022/09/07 04:46:43;;;;;;;3.20;2.90;;;;;;;;;;6176575;23;20081;-73
2022/09/07 04:49:11;;;;;;;2.50;2.30;;;;;;;;;;6178912;23;20052;-73
2022/09/07 04:51:45;;;;;;;3.00;2.33;;;;;;;;;;6175743;23;20052;-73
2022/09/07 04:54:12;;;;;;;2.80;2.50;;;;;;;;;;6177516;23;20029;-73
2022/09/07 04:56:39;;;;;;;5.18;1.90;;;;;;;;;;6179862;23;20029;-73
2022/09/07 04:59:13;;;;;;;4.72;2.28;;;;;;;;;;6179617;23;20029;-73
2022/09/07 05:01:40;;;;;;;4.68;2.72;;;;;;;;;;6178339;23;20025;-73
2022/09/07 05:04:08;;;;;;;10.38;3.58;;;;;;;;;;6179866;23;20028;-73
2022/09/07 05:06:42;;;;;;;4.35;2.63;;;;;;;;;;6180097;23;20029;-73
2022/09/07 05:09:09;;;;;;;3.55;2.60;;;;;;;;;;6179430;23;20060;-73
2022/09/07 05:11:37;;;;;;;4.05;2.38;;;;;;;;;;6179262;23;20072;-73
2022/09/07 05:14:11;;;;;;;4.93;2.83;;;;;;;;;;6180185;23;20040;-73
2022/09/07 05:16:51;;;;;;;10.52;2.40;;;;;;;;;;6179517;23;20033;-73
2022/09/07 05:19:26;;;;;;;2.90;2.60;;;;;;;;;;6179919;23;20481;-73
2022/09/07 05:22:08;;;;;;;4.07;2.72;;;;;;;;;;6154835;23;20494;-73
2022/09/07 05:24:42;;;;;;;3.70;2.42;;;;;;;;;;6180599;23;20021;-73
2022/09/07 05:27:09;;;;;;;4.45;2.90;;;;;;;;;;6178432;23;20390;-73
2022/09/07 05:29:36;;;;;;;3.00;2.38;;;;;;;;;;6180494;23;20105;-73
2022/09/07 05:32:26;;;;;;;4.32;2.45;;;;;;;;;;6190115;23;20048;-73
2022/09/07 05:34:53;;;;;;;3.67;2.40;;;;;;;;;;6179664;23;20029;-73
2022/09/07 05:37:27;;;;;;;4.80;2.80;;;;;;;;;;6180363;23;20028;-73
2022/09/07 05:39:55;;;;;;;4.18;2.78;;;;;;;;;;6155048;23;20052;-73
2022/09/07 05:42:23;;;;;;;5.45;2.78;;;;;;;;;;6178244;23;20540;-73
2022/09/07 05:44:57;;;;;;;4.03;2.75;;;;;;;;;;6180588;23;20017;-73
2022/09/07 05:47:24;;;;;;;5.18;3.03;;;;;;;;;;6180177;23;20466;-73
2022/09/07 05:49:53;;;;;;;3.97;2.88;;;;;;;;;;6179614;23;20057;-73
2022/09/07 05:52:30;;;;;;;5.72;3.10;;;;;;;;;;6180379;23;20339;-74
2022/09/07 05:54:57;;;;;;;4.45;2.83;;;;;;;;;;6180327;23;20021;-73
2022/09/07 05:57:44;;;;;;;6.47;2.85;;;;;;;;;;6179703;23;20025;-73
2022/09/07 06:00:20;;;;;;;4.90;3.40;;;;;;;;;;6180323;23;20056;-73
2022/09/07 06:02:47;;;;;;;5.32;3.25;;;;;;;;;;6180016;23;20098;-73
2022/09/07 06:05:14;;;;;;;;;;;;;;;;;;6179978;23;20603;-72
2022/09/07 06:07:48;;;;;;;4.03;3.28;;;;;;;;;;6180278;23;20150;-73
2022/09/07 06:10:15;;;;;;;6.22;4.10;;;;;;;;;;6179175;23;20063;-73
2022/09/07 06:13:03;;;;;;;4.95;3.58;;;;;;;;;;6180341;23;20025;-73
2022/09/07 06:15:58;;;;;;;4.47;3.28;;;;;;;;;;6179804;23;20025;-73
2022/09/07 06:18:33;;;;;;;5.90;4.15;;;;;;;;;;6180812;23;20055;-73
2022/09/07 06:21:08;;;;;;;8.93;3.65;;;;;;;;;;6182708;23;20036;-73
2022/09/07 06:23:37;;;;;;;6.55;3.97;;;;;;;;;;6182515;23;20080;-73
2022/09/07 06:26:05;;;;;;;7.40;4.57;;;;;;;;;;6180387;23;20496;-73
2022/09/07 06:28:40;;;;;;;5.15;4.05;;;;;;;;;;6182018;23;20072;-73
2022/09/07 06:31:09;;;;;;;6.90;4.78;;;;;;;;;;6180231;23;20417;-73
2022/09/07 06:33:36;;;;;;;5.95;4.35;;;;;;;;;;6180554;23;20025;-73
2022/09/07 06:36:11;;;;;;;10.52;3.40;;;;;;;;;;6181322;23;20410;-73
2022/09/07 06:38:39;;;;;;;3.72;3.30;;;;;;;;;;6181889;23;20025;-73
2022/09/07 06:41:07;;;;;;;6.82;3.88;;;;;;;;;;6180344;23;20714;-73
2022/09/07 06:44:01;;;;;;;5.60;4.30;;;;;;;;;;6180887;23;20027;-73
2022/09/07 06:46:28;;;;;;;7.28;3.40;;;;;;;;;;6180087;23;20056;-73
2022/09/07 06:49:22;;;;;;;3.30;2.70;;;;;;;;;;6180265;23;20431;-73
2022/09/07 06:51:49;;;;;;;3.65;3.20;;;;;;;;;;6181012;23;20029;-74
2022/09/07 06:54:23;;;;;;;3.55;3.22;;;;;;;;;;6181730;23;20305;-74
2022/09/07 06:57:10;;;;;;;5.07;2.90;;;;;;;;;;6181164;23;20053;-72
2022/09/07 06:59:44;;;;;;;3.47;2.90;;;;;;;;;;6180112;23;20088;-73
2022/09/07 07:02:15;;;;;;;6.07;2.85;;;;;;;;;;6180527;23;20025;-73
2022/09/07 07:04:42;;;;;;;3.58;3.15;;;;;;;;;;6156328;23;20025;-73
2022/09/07 07:07:16;;;;;;;3.67;3.30;;;;;;;;;;6180598;23;20398;-74
2022/09/07 07:09:43;;;;;;;3.78;2.97;;;;;;;;;;6181102;23;20025;-73
2022/09/07 07:12:10;;;;;;;5.72;3.17;;;;;;;;;;6181467;23;20025;-73
2022/09/07 07:14:43;;;;;;;6.65;2.67;;;;;;;;;;6156461;23;20104;-73
2022/09/07 07:17:24;;;;;;;4.72;2.70;;;;;;;;;;6168931;23;20473;-74
2022/09/07 07:19:58;;;;;;;3.67;2.88;;;;;;;;;;6180899;23;20029;-73
2022/09/07 07:22:25;;;;;;;3.92;2.53;;;;;;;;;;6180884;23;20049;-74
2022/09/07 07:25:13;;;;;;;2.63;2.42;;;;;;;;;;6180253;23;20409;-74
2022/09/07 07:27:47;;;;;;;2.88;2.40;;;;;;;;;;6180113;23;20366;-74
2022/09/07 07:30:19;;;;;;;3.22;2.70;;;;;;;;;;6180847;23;20025;-74
2022/09/07 07:32:47;;;;;;;3.17;2.45;;;;;;;;;;6179884;23;20401;-74
2022/09/07 07:35:22;;;;;;;3.35;2.40;;;;;;;;;;6181345;23;20057;-73
2022/09/07 07:37:49;;;;;;;;;;;;;;;;;;6181530;23;20021;-74
2022/09/07 07:40:16;;;;;;;1.90;1.80;;;;;;;;;;6177764;23;20246;-73
2022/09/07 07:42:56;;;;;;;2.20;1.95;;;;;;;;;;6181231;23;20025;-74
2022/09/07 07:45:23;;;;;;;2.38;1.60;;;;;;;;;;6180483;23;20719;-74
2022/09/07 07:48:17;;;;;;;1.88;1.63;;;;;;;;;;6179876;23;20021;-73
2022/09/07 07:50:44;;;;;;;1.65;1.52;;;;;;;;;;6179621;23;20517;-73
2022/09/07 07:53:20;;;;;;;4.88;1.35;;;;;;;;;;6181124;23;20095;-74
2022/09/07 07:56:07;;;;;;;;;;;;;;;;;;6180183;23;20029;-74
2022/09/07 07:58:44;;;;;;;1.65;1.33;;;;;;;;;;6180741;23;20003;-74
2022/09/07 08:01:12;;;;;;;2.35;1.45;;;;;;;;;;6180550;23;20109;-74
2022/09/07 08:03:40;;;;;;;2.53;1.30;;;;;;;;;;6179575;23;20021;-73
2022/09/07 08:06:15;;;;;;;4.65;1.23;;;;;;;;;;6180080;23;20534;-73
2022/09/07 08:08:43;;;;;;;2.90;1.33;;;;;;;;;;6180911;23;20537;-74
2022/09/07 08:11:12;;;;;;;0.82;0.82;;;;;;;;;;6179899;23;20395;-74
2022/09/07 08:13:48;;;;;;;2.97;1.10;;;;;;;;;;6181042;23;20021;-74
2022/09/07 08:16:28;;;;;;;0.93;0.77;;;;;;;;;;6179941;23;20107;-73
2022/09/07 08:19:04;;;;;;;1.75;0.82;;;;;;;;;;6180670;23;20453;-73
2022/09/07 08:21:31;;;;;;;1.38;0.90;;;;;;;;;;6178710;23;20474;-73
2022/09/07 08:23:58;;;;;;;2.08;1.02;;;;;;;;;;6180795;23;20119;-73
2022/09/07 08:26:32;;;;;;;1.08;0.98;;;;;;;;;;6180105;23;20025;-74
2022/09/07 08:28:59;;;;;;;1.15;1.00;;;;;;;;;;6179913;23;20017;-73
2022/09/07 08:31:27;;;;;;;1.02;1.02;;;;;;;;;;6180076;23;20342;-74
2022/09/07 08:34:00;;;;;;;3.05;1.02;;;;;;;;;;6182020;23;20023;-73
2022/09/07 08:36:30;;;;;;;1.15;1.00;;;;;;;;;;6180564;23;20025;-74
2022/09/07 08:38:58;;;;;;;1.30;1.20;;;;;;;;;;6154249;23;20028;-74
2022/09/07 08:41:35;;;;;;;0.85;0.80;;;;;;;;;;6178933;23;20103;-74
2022/09/07 08:44:05;;;;;;;1.13;0.95;;;;;;;;;;6180344;23;20131;-74
2022/09/07 08:46:58;;;;;;;1.10;1.00;;;;;;;;;;6179116;23;20504;-74
2022/09/07 08:49:28;;;;;;;2.05;0.82;;;;;;;;;;6179214;23;20123;-74
2022/09/07 08:52:04;;;;;;;0.82;0.70;;;;;;;;;;6180303;23;20021;-74
2022/09/07 08:54:32;;;;;;;2.28;0.82;;;;;;;;;;6179697;23;20021;-74
2022/09/07 08:56:59;;;;;;;;;;;;;;;;;;6179529;23;20021;-74
2022/09/07 09:00:09;;;;;;;1.23;0.95;;;;;;;;;;6180658;23;20377;-74
2022/09/07 09:02:36;;;;;;;0.93;0.60;;;;;;;;;;6180598;23;20021;-74
2022/09/07 09:05:50;;;;;;;0.95;0.80;;;;;;;;;;6179097;23;20029;-74
2022/09/07 09:08:20;;;;;;;1.45;0.80;;;;;;;;;;6179793;23;20023;-74
2022/09/07 09:11:00;;;;;;;1.25;0.93;;;;;;;;;;6180403;23;20024;-74
2022/09/07 09:13:41;;;;;;;0.77;0.70;;;;;;;;;;6179447;23;20096;-74
2022/09/07 09:16:31;;;;;;;1.33;0.80;;;;;;;;;;6178736;23;20025;-75
2022/09/07 09:19:01;;;;;;;2.65;0.88;;;;;;;;;;6179694;23;20017;-75
2022/09/07 09:21:35;;;;;;;1.17;0.90;;;;;;;;;;6179264;23;20096;-74
2022/09/07 09:24:10;;;;;;;0.70;0.70;;;;;;;;;;6179980;23;20020;-74
2022/09/07 09:26:50;;;;;;;0.93;0.70;;;;;;;;;;6180806;23;20706;-74
2022/09/07 09:29:19;;;;;;;1.15;1.05;;;;;;;;;;6178859;23;20017;-74
2022/09/07 09:31:53;;;;;;;1.15;0.93;;;;;;;;;;6179278;23;20100;-74
2022/09/07 09:34:21;;;;;;;2.97;1.10;;;;;;;;;;6180360;23;20024;-74
2022/09/07 09:36:54;;;;;;;1.20;0.90;;;;;;;;;;6179593;23;20036;-74
2022/09/07 09:39:31;;;;;;;1.13;1.00;;;;;;;;;;6179092;23;20400;-75
2022/09/07 09:42:18;;;;;;;1.08;0.93;;;;;;;;;;6178321;23;20021;-74
2022/09/07 09:44:53;;;;;;;0.80;0.80;;;;;;;;;;6162140;23;20021;-74
2022/09/07 09:47:25;;;;;;;1.58;0.90;;;;;;;;;;6178209;23;20459;-74
2022/09/07 09:50:20;;;;;;;0.88;0.80;;;;;;;;;;6179382;23;20079;-74
2022/09/07 09:53:21;;;;;;;0.73;0.73;;;;;;;;;;6180513;23;20032;-74
2022/09/07 09:55:55;;;;;;;1.10;0.88;;;;;;;;;;6181517;23;20021;-75
2022/09/07 09:58:22;;;;;;;;;;;;;;;;;;6183089;23;20100;-74
2022/09/07 10:01:23;;;;;;;0.88;0.70;;;;;;;;;;6181590;23;19986;-74
2022/09/07 10:03:58;;;;;;;;;;;;;;;;;;6182965;23;20021;-74
2022/09/07 10:06:29;;;;;;;0.75;0.75;;;;;;;;;;6181945;23;19920;-74
2022/09/07 10:08:57;;;;;;;0.80;0.80;;;;;;;;;;6181477;23;20053;-75
2022/09/07 10:11:42;;;;;;;2.13;0.70;;;;;;;;;;6182039;23;20466;-74
2022/09/07 10:14:30;;;;;;;1.20;0.77;;;;;;;;;;6181662;23;20032;-74
2022/09/07 10:17:19;;;;;;;2.47;0.80;;;;;;;;;;6181018;23;20486;-75
2022/09/07 10:19:57;;;;;;;2.15;0.88;;;;;;;;;;6155310;23;20021;-74
2022/09/07 10:22:35;;;;;;;1.92;1.05;;;;;;;;;;6181480;23;20025;-74
2022/09/07 10:25:22;;;;;;;0.80;0.80;;;;;;;;;;6182020;23;20017;-73
2022/09/07 10:28:04;;;;;;;1.70;0.70;;;;;;;;;;6181155;23;20025;-74
2022/09/07 10:30:38;;;;;;;1.85;1.10;;;;;;;;;;6180047;23;20031;-74
2022/09/07 10:33:20;;;;;;;1.27;0.85;;;;;;;;;;6181292;23;20025;-75
2022/09/07 10:35:59;;;;;;;1.38;0.90;;;;;;;;;;6179683;23;20031;-74
2022/09/07 10:38:36;;;;;;;2.60;0.80;;;;;;;;;;6181090;23;20550;-74
2022/09/07 10:41:08;;;;;;;0.90;0.90;;;;;;;;;;6181497;23;20025;-75
2022/09/07 10:43:47;;;;;;;1.45;1.00;;;;;;;;;;6179946;23;20107;-74
2022/09/07 10:46:18;;;;;;;3.33;1.10;;;;;;;;;;6181086;23;20029;-74
2022/09/07 10:49:23;;;;;;;1.40;0.80;;;;;;;;;;6180675;23;20346;-75
2022/09/07 10:51:50;;;;;;;1.67;0.95;;;;;;;;;;6180528;23;20340;-75
2022/09/07 10:54:24;;;;;;;1.08;0.90;;;;;;;;;;6182202;23;20069;-75
2022/09/07 10:57:02;;;;;;;1.08;0.90;;;;;;;;;;6181755;23;20025;-74
2022/09/07 10:59:44;;;;;;;3.22;0.90;;;;;;;;;;6180288;23;20096;-74
2022/09/07 11:02:57;;;;;;;1.25;0.88;;;;;;;;;;6180531;23;20021;-74
2022/09/07 11:05:51;;;;;;;2.08;1.02;;;;;;;;;;6180324;23;20017;-74
2022/09/07 11:08:57;;;;;;;0.77;0.70;;;;;;;;;;6181038;23;20100;-74
2022/09/07 11:12:05;;;;;;;1.63;0.85;;;;;;;;;;6032440;23;20024;-74
2022/09/07 11:15:02;;;;;;;1.75;0.90;;;;;;;;;;6032318;23;20035;-74
2022/09/07 11:17:53;;;;;;;3.63;1.10;;;;;;;;;;6153319;23;20108;-74
2022/09/07 11:20:29;;;;;;;2.25;1.10;;;;;;;;;;6179379;23;20111;-75
2022/09/07 11:23:12;;;;;;;0.82;0.63;;;;;;;;;;6180667;23;20075;-74
2022/09/07 11:25:39;;;;;;;1.60;0.93;;;;;;;;;;6155004;23;20395;-74
2022/09/07 11:28:16;;;;;;;0.95;0.80;;;;;;;;;;6155996;23;20096;-74
2022/09/07 11:30:48;;;;;;;1.80;0.90;;;;;;;;;;6180690;23;20100;-74
2022/09/07 11:33:28;;;;;;;1.02;0.90;;;;;;;;;;6156739;23;20048;-74
2022/09/07 11:36:05;;;;;;;2.00;0.95;;;;;;;;;;6179672;23;20025;-74
2022/09/07 11:38:45;;;;;;;0.90;0.90;;;;;;;;;;6181479;23;20021;-74
2022/09/07 11:41:18;;;;;;;0.77;0.77;;;;;;;;;;6155250;23;20107;-74
2022/09/07 11:44:01;;;;;;;1.05;0.88;;;;;;;;;;6180569;23;20029;-75
2022/09/07 11:46:46;;;;;;;1.20;1.10;;;;;;;;;;6180698;23;20063;-75
2022/09/07 11:49:19;;;;;;;1.52;1.00;;;;;;;;;;6180557;23;20339;-74
2022/09/07 11:51:51;;;;;;;1.55;0.90;;;;;;;;;;6180460;23;20100;-74
2022/09/07 11:54:40;;;;;;;3.58;0.90;;;;;;;;;;6181679;23;20059;-74
2022/09/07 11:57:14;;;;;;;1.70;0.95;;;;;;;;;;6156557;23;20105;-74
2022/09/07 11:59:51;;;;;;;1.08;0.68;;;;;;;;;;6180710;23;20387;-74
2022/09/07 12:02:43;;;;;;;1.23;0.82;;;;;;;;;;6181039;23;20040;-74
2022/09/07 12:05:40;;;;;;;1.75;0.88;;;;;;;;;;6181069;23;20029;-74
2022/09/07 12:08:17;;;;;;;0.80;0.80;;;;;;;;;;6181018;23;20482;-74
2022/09/07 12:10:53;;;;;;;4.78;1.20;;;;;;;;;;6180201;23;20029;-74
2022/09/07 12:13:45;;;;;;;1.00;0.88;;;;;;;;;;6179935;23;20025;-74
2022/09/07 12:16:28;;;;;;;1.45;1.00;;;;;;;;;;6151580;23;20104;-75
2022/09/07 12:19:16;;;;;;;2.67;0.88;;;;;;;;;;6180286;23;20021;-74
2022/09/07 12:21:45;;;;;;;0.90;0.70;;;;;;;;;;6153991;23;20100;-74
2022/09/07 12:24:31;;;;;;;1.00;0.90;;;;;;;;;;6180397;23;20067;-73
2022/09/07 12:26:59;;;;;;;1.05;0.88;;;;;;;;;;6180312;23;20031;-74
2022/09/07 12:29:33;;;;;;;0.88;0.60;;;;;;;;;;6154827;23;20021;-74
2022/09/07 12:32:02;;;;;;;1.30;0.90;;;;;;;;;;6154662;23;20100;-74
2022/09/07 12:34:50;;;;;;;0.88;0.80;;;;;;;;;;6179336;23;20359;-74
2022/09/07 12:37:36;;;;;;;0.77;0.77;;;;;;;;;;6179319;23;20555;-74
2022/09/07 12:40:22;;;;;;;0.80;0.65;;;;;;;;;;6179149;23;20100;-74
2022/09/07 12:43:12;;;;;;;0.80;0.70;;;;;;;;;;6179743;23;20028;-74
2022/09/07 12:45:39;;;;;;;1.88;0.70;;;;;;;;;;6179032;23;20028;-74
2022/09/07 12:48:19;;;;;;;1.00;0.70;;;;;;;;;;6179853;23;20029;-73
2022/09/07 12:50:54;;;;;;;1.00;0.90;;;;;;;;;;6179486;23;20035;-74
2022/09/07 12:53:37;;;;;;;2.35;0.75;;;;;;;;;;6179989;23;20021;-74
2022/09/07 12:56:10;;;;;;;0.77;0.77;;;;;;;;;;6179691;23;20064;-73
2022/09/07 12:58:44;;;;;;;0.90;0.70;;;;;;;;;;6178845;23;20087;-74
2022/09/07 13:01:30;;;;;;;3.03;1.00;;;;;;;;;;6153530;23;20028;-73
2022/09/07 13:04:04;;;;;;;1.50;0.80;;;;;;;;;;6179662;23;20024;-73
2022/09/07 13:06:32;;;;;;;1.40;1.00;;;;;;;;;;6178033;23;20021;-75
2022/09/07 13:09:35;;;;;;;1.20;0.90;;;;;;;;;;6178932;23;20032;-74
2022/09/07 13:12:24;;;;;;;1.05;0.80;;;;;;;;;;6181088;23;20021;-74
2022/09/07 13:15:30;;;;;;;1.20;0.65;;;;;;;;;;6179271;23;20083;-74
2022/09/07 13:18:11;;;;;;;0.80;0.80;;;;;;;;;;6179191;23;20029;-74
2022/09/07 13:20:38;;;;;;;1.63;0.90;;;;;;;;;;6178728;23;20420;-75
2022/09/07 13:23:24;;;;;;;1.50;0.88;;;;;;;;;;6179586;23;20023;-74
2022/09/07 13:25:53;;;;;;;0.60;0.60;;;;;;;;;;6178593;23;20032;-74
2022/09/07 13:28:29;;;;;;;2.60;0.70;;;;;;;;;;6178550;23;20023;-74
2022/09/07 13:31:04;;;;;;;1.02;0.90;;;;;;;;;;6179917;23;20521;-74
2022/09/07 13:33:47;;;;;;;2.00;1.10;;;;;;;;;;6179491;23;20096;-74
2022/09/07 13:36:32;;;;;;;0.95;0.80;;;;;;;;;;6178631;23;20036;-74
2022/09/07 13:39:08;;;;;;;2.35;0.98;;;;;;;;;;6178387;23;20039;-74
2022/09/07 13:41:37;;;;;;;3.22;0.95;;;;;;;;;;6179611;23;20025;-74
2022/09/07 13:44:04;;;;;;;0.95;0.90;;;;;;;;;;6179857;23;20120;-74
2022/09/07 13:46:44;;;;;;;2.25;1.00;;;;;;;;;;6180207;23;20432;-74
2022/09/07 13:49:31;;;;;;;1.45;0.70;;;;;;;;;;6179883;23;20031;-74
2022/09/07 13:52:21;;;;;;;0.60;0.60;;;;;;;;;;6111947;23;20021;-74
2022/09/07 13:54:48;;;;;;;1.00;0.88;;;;;;;;;;6180705;23;20100;-74
2022/09/07 13:57:28;;;;;;;1.13;1.00;;;;;;;;;;6155058;23;20096;-74
2022/09/07 13:59:56;;;;;;;1.95;0.90;;;;;;;;;;6180490;23;20361;-74
2022/09/07 14:02:35;;;;;;;1.67;1.02;;;;;;;;;;6180292;23;20025;-74
2022/09/07 14:05:03;;;;;;;0.75;0.75;;;;;;;;;;6179730;23;20099;-74
2022/09/07 14:07:30;;;;;;;4.28;0.80;;;;;;;;;;6178668;23;20394;-74
2022/09/07 14:10:04;;;;;;;0.75;0.70;;;;;;;;;;6179442;23;20021;-74
2022/09/07 14:12:32;;;;;;;3.92;1.00;;;;;;;;;;6177937;23;20064;-74
2022/09/07 14:15:09;;;;;;;3.22;0.90;;;;;;;;;;6179972;23;20025;-74
2022/09/07 14:17:59;;;;;;;1.15;0.80;;;;;;;;;;6179034;23;20032;-74
2022/09/07 14:20:27;;;;;;;0.80;0.80;;;;;;;;;;6179306;23;20017;-74
2022/09/07 14:23:01;;;;;;;1.48;0.93;;;;;;;;;;6180091;23;20474;-74
2022/09/07 14:25:28;;;;;;;1.10;0.80;;;;;;;;;;6152561;23;20100;-74
2022/09/07 14:27:57;;;;;;;5.80;0.85;;;;;;;;;;6178699;23;20031;-74
2022/09/07 14:30:32;;;;;;;1.15;1.00;;;;;;;;;;6179427;23;20092;-74
2022/09/07 14:33:03;;;;;;;2.25;0.60;;;;;;;;;;6178565;23;20033;-74
2022/09/07 14:35:36;;;;;;;4.88;0.65;;;;;;;;;;6177909;23;20370;-74
2022/09/07 14:38:13;;;;;;;0.80;0.75;;;;;;;;;;6179161;23;20025;-74
2022/09/07 14:40:41;;;;;;;1.50;0.63;;;;;;;;;;6180213;23;20025;-74
2022/09/07 14:43:27;;;;;;;17.70;1.98;;;;;;;;;;6154765;23;20576;-74
2022/09/07 14:46:18;;;;;;;2.67;0.90;;;;;;;;;;6181076;23;20021;-74
2022/09/07 14:48:47;;;;;;;1.35;0.75;;;;;;;;;;6180286;23;20318;-74
2022/09/07 14:51:27;;;;;;;2.95;0.70;;;;;;;;;;6181386;23;20394;-74
2022/09/07 14:54:04;;;;;;;1.63;0.90;;;;;;;;;;6180494;23;20099;-74
2022/09/07 14:56:40;;;;;;;0.70;0.70;;;;;;;;;;6155835;23;20350;-74
2022/09/07 14:59:27;;;;;;;0.93;0.70;;;;;;;;;;6180800;23;20059;-74
2022/09/07 15:02:34;;;;;;;3.63;0.82;;;;;;;;;;6180191;23;20021;-74
2022/09/07 15:05:16;;;;;;;1.48;0.70;;;;;;;;;;6099596;23;20075;-74
2022/09/07 15:08:01;;;;;;;1.25;0.95;;;;;;;;;;6156774;23;20474;-74
2022/09/07 15:10:34;;;;;;;0.90;0.83;;;;;;;;;;6180303;23;20060;-74
2022/09/07 15:13:33;;;;;;;1.65;0.73;;;;;;;;;;6180968;23;20287;-74
2022/09/07 15:16:01;;;;;;;0.82;0.65;;;;;;;;;;6180482;23;20052;-74
2022/09/07 15:18:54;;;;;;;1.15;0.75;;;;;;;;;;6178936;23;20044;-74
2022/09/07 15:21:23;;;;;;;2.00;0.82;;;;;;;;;;6181110;23;20029;-74
2022/09/07 15:23:57;;;;;;;3.25;0.80;;;;;;;;;;6181397;23;20023;-74
2022/09/07 15:26:26;;;;;;;2.25;0.82;;;;;;;;;;6180332;23;20035;-74
2022/09/07 15:29:15;;;;;;;2.65;0.52;;;;;;;;;;6181302;23;20021;-72
2022/09/07 15:31:50;;;;;;;1.75;0.77;;;;;;;;;;6180919;23;20025;-75
2022/09/07 15:34:31;;;;;;;0.68;0.68;;;;;;;;;;6180262;23;20339;-74
2022/09/07 15:37:04;;;;;;;0.93;0.75;;;;;;;;;;6179362;23;20545;-74